Time;durP1;ratioP1;P1;durP2;ratioP2;P2;SDS_P1;SDS_P2;PMS_P1;PMS_P2;Temp;Humidity;BMP_temperature;BMP_pressure;BME280_temperature;BME280_humidity;BME280_pressure;Samples;Min_cycle;Max_cycle;Signal;HPM_P1;HPM_P2
2022/05/03 00:02:22;;;;;;;11.32;9.00;;;8.40;99.90;;;;;;5029908;28;20050;-66
2022/05/03 00:05:03;;;;;;;10.68;8.45;;;8.40;99.90;;;;;;5031988;28;20518;-66
2022/05/03 00:08:01;;;;;;;12.95;7.97;;;8.40;99.90;;;;;;5031840;28;20037;-65
2022/05/03 00:11:04;;;;;;;12.80;8.32;;;8.40;99.90;;;;;;5030580;28;20049;-65
2022/05/03 00:13:40;;;;;;;10.55;8.65;;;8.40;99.90;;;;;;5031893;28;20041;-65
2022/05/03 00:16:06;;;;;;;10.88;8.07;;;8.30;99.90;;;;;;5031885;28;20041;-65
2022/05/03 00:18:33;;;;;;;11.27;8.43;;;8.30;99.90;;;;;;5031928;28;20045;-65
2022/05/03 00:20:58;;;;;;;11.85;8.57;;;8.30;99.90;;;;;;5031617;28;20046;-65
2022/05/03 00:23:25;;;;;;;11.90;9.48;;;8.30;99.90;;;;;;5034146;28;20041;-66
2022/05/03 00:25:52;;;;;;;9.95;7.68;;;8.20;99.90;;;;;;5035856;28;20167;-65
2022/05/03 00:28:19;;;;;;;12.32;9.20;;;8.30;99.90;;;;;;5036206;28;20045;-65
2022/05/03 00:30:46;;;;;;;10.73;8.60;;;8.20;99.90;;;;;;5035464;28;20072;-66
2022/05/03 00:33:14;;;;;;;13.95;10.05;;;8.20;99.90;;;;;;5034506;28;20120;-65
2022/05/03 00:35:41;;;;;;;11.93;9.20;;;8.30;99.90;;;;;;5035644;28;20164;-66
2022/05/03 00:38:06;;;;;;;11.13;8.65;;;8.20;99.90;;;;;;5034287;28;20056;-65
2022/05/03 00:40:33;;;;;;;12.10;8.68;;;8.20;99.90;;;;;;5035402;28;20049;-65
2022/05/03 00:43:14;;;;;;;11.07;8.40;;;8.20;99.90;;;;;;5035639;28;20033;-65
2022/05/03 00:46:00;;;;;;;12.30;8.68;;;8.10;99.90;;;;;;5035672;28;20030;-66
2022/05/03 00:49:00;;;;;;;10.32;8.43;;;8.10;99.90;;;;;;5035348;28;20052;-65
2022/05/03 00:51:54;;;;;;;11.02;8.57;;;8.10;99.90;;;;;;5035200;28;20064;-66
2022/05/03 00:54:47;;;;;;;11.63;8.73;;;8.10;99.90;;;;;;5035567;28;20048;-66
2022/05/03 00:57:26;;;;;;;12.70;8.68;;;8.00;99.90;;;;;;5035366;28;20045;-66
2022/05/03 01:00:07;;;;;;;13.15;9.60;;;8.00;99.90;;;;;;5035137;28;20495;-66
2022/05/03 01:03:06;;;;;;;11.77;8.55;;;8.00;99.90;;;;;;5035364;28;20033;-66
2022/05/03 01:05:45;;;;;;;10.68;8.70;;;8.00;99.90;;;;;;5034080;28;20041;-65
2022/05/03 01:08:21;;;;;;;13.00;8.35;;;8.00;99.90;;;;;;5034946;28;20053;-66
2022/05/03 01:11:06;;;;;;;13.07;8.90;;;7.90;99.90;;;;;;5034998;28;20048;-66
2022/05/03 01:13:41;;;;;;;11.35;8.45;;;7.90;99.90;;;;;;5035161;28;20071;-65
2022/05/03 01:16:29;;;;;;;13.63;9.75;;;7.90;99.90;;;;;;5035031;28;20052;-66
2022/05/03 01:19:32;;;;;;;12.05;9.20;;;7.90;99.90;;;;;;5034861;28;20107;-66
2022/05/03 01:22:20;;;;;;;12.48;9.10;;;7.80;99.90;;;;;;5033373;28;20495;-66
2022/05/03 01:25:08;;;;;;;11.23;8.68;;;7.80;99.90;;;;;;5034840;28;20072;-65
2022/05/03 01:27:36;;;;;;;12.70;9.27;;;7.70;99.90;;;;;;5034589;28;20064;-66
2022/05/03 01:30:02;;;;;;;12.98;9.85;;;7.70;99.90;;;;;;5034354;28;20485;-66
2022/05/03 01:32:31;;;;;;;13.32;10.48;;;7.60;99.90;;;;;;5034738;28;20095;-66
2022/05/03 01:34:58;;;;;;;15.25;9.85;;;7.60;99.90;;;;;;5033547;28;20663;-66
2022/05/03 01:37:47;;;;;;;13.20;8.70;;;7.50;99.90;;;;;;5034394;28;20056;-65
2022/05/03 01:40:27;;;;;;;14.93;9.68;;;7.60;99.90;;;;;;5034393;28;20045;-65
2022/05/03 01:43:17;;;;;;;13.00;8.65;;;7.50;99.90;;;;;;5034578;28;20037;-66
2022/05/03 01:45:51;;;;;;;10.55;7.78;;;7.50;99.90;;;;;;5034360;28;20037;-65
2022/05/03 01:51:38;;;;;;;10.82;8.13;;;7.40;99.90;;;;;;5034048;28;20041;-66
2022/05/03 01:54:31;;;;;;;11.70;9.02;;;7.40;99.90;;;;;;5034216;28;20041;-65
2022/05/03 01:57:04;;;;;;;12.40;9.48;;;7.30;99.90;;;;;;5034309;28;20041;-65
2022/05/03 01:59:34;;;;;;;14.25;9.55;;;7.30;99.90;;;;;;5034290;28;20077;-65
2022/05/03 02:02:19;;;;;;;11.23;9.38;;;7.30;99.90;;;;;;5033934;28;20041;-66
2022/05/03 02:04:58;;;;;;;11.85;9.77;;;7.30;99.90;;;;;;5034015;28;20033;-65
2022/05/03 02:07:30;;;;;;;15.23;10.40;;;7.30;99.90;;;;;;5034068;28;20045;-66
2022/05/03 02:10:10;;;;;;;15.82;9.80;;;7.30;99.90;;;;;;5033794;28;20049;-65
2022/05/03 02:12:36;;;;;;;12.18;9.85;;;7.20;99.90;;;;;;5034000;28;20033;-65
2022/05/03 02:15:06;;;;;;;14.95;10.25;;;7.20;99.90;;;;;;5033801;28;20041;-65
2022/05/03 02:18:00;;;;;;;12.85;10.65;;;7.20;99.90;;;;;;5033960;28;20342;-66
2022/05/03 02:20:56;;;;;;;14.07;11.13;;;7.20;99.90;;;;;;5033572;28;20407;-65
2022/05/03 02:23:41;;;;;;;14.30;11.02;;;7.20;99.90;;;;;;5033613;28;20045;-66
2022/05/03 02:26:22;;;;;;;12.80;10.48;;;7.10;99.90;;;;;;5033746;28;20037;-66
2022/05/03 02:29:14;;;;;;;16.70;11.00;;;7.10;99.90;;;;;;5033575;28;20049;-66
2022/05/03 02:32:05;;;;;;;15.60;12.07;;;7.10;99.90;;;;;;5033245;28;20042;-66
2022/05/03 02:34:34;;;;;;;13.38;11.82;;;7.10;99.90;;;;;;5033681;28;20048;-66
2022/05/03 02:37:42;;;;;;;15.32;12.20;;;7.10;99.90;;;;;;5033443;28;20037;-65
2022/05/03 02:40:12;;;;;;;14.68;11.35;;;7.10;99.90;;;;;;5014964;28;20056;-65
2022/05/03 02:42:39;;;;;;;15.30;11.40;;;7.10;99.90;;;;;;5033505;28;20038;-65
2022/05/03 02:45:05;;;;;;;15.02;12.05;;;7.10;99.90;;;;;;5033253;28;20048;-65
2022/05/03 02:47:48;;;;;;;13.85;10.93;;;7.10;99.90;;;;;;5033029;28;20048;-65
2022/05/03 02:50:26;;;;;;;13.32;11.13;;;7.10;99.90;;;;;;5032881;28;20033;-65
2022/05/03 02:53:23;;;;;;;12.90;10.82;;;7.20;99.90;;;;;;5033392;28;20052;-66
2022/05/03 02:55:53;;;;;;;12.70;10.45;;;7.20;99.90;;;;;;5033235;28;20103;-65
2022/05/03 02:58:52;;;;;;;12.25;10.68;;;7.20;99.90;;;;;;5031997;28;20048;-66
2022/05/03 03:01:48;;;;;;;11.50;9.13;;;7.20;99.90;;;;;;5031834;28;20041;-65
2022/05/03 03:04:32;;;;;;;13.13;9.85;;;7.20;99.90;;;;;;5033045;28;20041;-65
2022/05/03 03:06:59;;;;;;;13.23;9.45;;;7.20;99.90;;;;;;5032698;28;20172;-65
2022/05/03 03:09:43;;;;;;;13.15;10.75;;;7.30;99.90;;;;;;5032793;28;20037;-65
2022/05/03 03:12:26;;;;;;;13.75;10.77;;;7.30;99.90;;;;;;5032697;28;20041;-66
2022/05/03 03:15:03;;;;;;;12.88;10.60;;;7.30;99.90;;;;;;5032898;28;20052;-66
2022/05/03 03:17:31;;;;;;;13.82;11.55;;;7.30;99.90;;;;;;5032572;28;20037;-65
2022/05/03 03:19:57;;;;;;;16.45;13.82;;;7.40;99.90;;;;;;5032555;28;20072;-65
2022/05/03 03:22:28;;;;;;;15.60;12.20;;;7.40;99.90;;;;;;5032714;28;20499;-65
2022/05/03 03:24:56;;;;;;;18.23;12.50;;;7.40;99.90;;;;;;5032794;28;20077;-65
2022/05/03 03:27:24;;;;;;;16.77;12.82;;;7.50;99.90;;;;;;5032548;28;20045;-65
2022/05/03 03:29:55;;;;;;;14.35;11.13;;;7.50;99.90;;;;;;5032497;28;20088;-65
2022/05/03 03:32:22;;;;;;;13.77;11.20;;;7.50;99.90;;;;;;5031152;28;20511;-65
2022/05/03 03:34:49;;;;;;;14.18;11.20;;;7.50;99.90;;;;;;5032264;28;20431;-65
2022/05/03 03:37:16;;;;;;;13.23;10.95;;;7.50;99.90;;;;;;5032336;28;20099;-66
2022/05/03 03:39:41;;;;;;;13.07;10.65;;;7.50;99.90;;;;;;5032346;28;20048;-65
2022/05/03 03:42:07;;;;;;;14.65;11.27;;;7.60;99.90;;;;;;5032032;28;20037;-66
2022/05/03 03:44:33;;;;;;;18.08;12.90;;;7.60;99.90;;;;;;5032102;28;20041;-65
2022/05/03 03:47:02;;;;;;;18.58;13.85;;;7.60;99.90;;;;;;5030079;28;20133;-68
2022/05/03 03:49:30;;;;;;;16.50;12.40;;;7.50;99.90;;;;;;5020810;28;20046;-68
2022/05/03 03:51:59;;;;;;;16.55;12.32;;;7.50;99.90;;;;;;5028194;28;20396;-65
2022/05/03 03:54:26;;;;;;;15.00;11.10;;;7.50;99.90;;;;;;5027372;28;20095;-66
2022/05/03 03:56:53;;;;;;;16.63;12.98;;;7.40;99.90;;;;;;5022146;28;20389;-66
2022/05/03 03:59:18;;;;;;;19.08;13.00;;;7.50;99.90;;;;;;5031760;28;20056;-65
2022/05/03 04:01:44;;;;;;;17.33;13.52;;;7.50;99.90;;;;;;5031884;28;20037;-65
2022/05/03 04:04:11;;;;;;;20.48;14.80;;;7.50;99.90;;;;;;5032023;28;20045;-66
2022/05/03 04:06:38;;;;;;;19.35;14.20;;;7.50;99.90;;;;;;5031793;28;20037;-65
2022/05/03 04:09:04;;;;;;;20.05;15.23;;;7.60;99.90;;;;;;5031790;28;20034;-66
2022/05/03 04:11:42;;;;;;;17.80;14.38;;;7.70;99.90;;;;;;5031420;28;20048;-65
2022/05/03 04:14:08;;;;;;;18.08;13.77;;;7.80;99.90;;;;;;5031960;28;20041;-65
2022/05/03 04:16:33;;;;;;;17.70;13.23;;;7.80;99.90;;;;;;5031770;28;20376;-65
2022/05/03 04:18:59;;;;;;;25.10;15.95;;;7.90;99.90;;;;;;5031746;28;20056;-65
2022/05/03 04:21:25;;;;;;;23.67;16.33;;;7.90;99.90;;;;;;5031386;28;20510;-65
2022/05/03 04:23:51;;;;;;;18.90;15.23;;;7.90;99.90;;;;;;5031644;28;20037;-66
2022/05/03 04:26:17;;;;;;;22.88;16.65;;;7.90;99.90;;;;;;5031366;28;20082;-66
2022/05/03 04:28:42;;;;;;;18.45;14.77;;;8.00;99.90;;;;;;5031674;28;20398;-65
2022/05/03 04:31:08;;;;;;;21.98;16.60;;;8.00;99.90;;;;;;5031405;28;20037;-66
2022/05/03 04:33:34;;;;;;;19.50;15.70;;;8.00;99.90;;;;;;5031753;28;20030;-65
2022/05/03 04:35:59;;;;;;;22.08;16.80;;;8.00;99.90;;;;;;5031622;28;20034;-68
2022/05/03 04:38:25;;;;;;;21.63;16.67;;;8.10;99.90;;;;;;5031524;28;20041;-66
2022/05/03 04:40:57;;;;;;;23.00;18.02;;;8.10;99.90;;;;;;5031061;28;20530;-66
2022/05/03 04:43:23;;;;;;;23.13;17.75;;;8.20;99.90;;;;;;5031763;28;20052;-66
2022/05/03 04:45:49;;;;;;;24.25;17.73;;;8.20;99.90;;;;;;5031547;28;20038;-65
2022/05/03 04:48:14;;;;;;;24.33;17.80;;;8.20;99.90;;;;;;5031262;28;20041;-65
2022/05/03 04:50:41;;;;;;;26.67;20.00;;;8.20;99.90;;;;;;5031199;28;20112;-66
2022/05/03 04:53:06;;;;;;;25.13;18.92;;;8.30;99.90;;;;;;5031343;28;20518;-68
2022/05/03 04:55:32;;;;;;;26.77;19.88;;;8.30;99.90;;;;;;5031316;28;20041;-67
2022/05/03 04:57:58;;;;;;;28.60;20.80;;;8.30;99.90;;;;;;5030060;28;20495;-68
2022/05/03 05:00:23;;;;;;;33.50;22.60;;;8.30;99.90;;;;;;5029839;28;20431;-67
2022/05/03 05:02:49;;;;;;;34.78;22.30;;;8.40;99.90;;;;;;5031408;28;20030;-68
2022/05/03 05:05:15;;;;;;;32.92;21.17;;;8.40;99.90;;;;;;5031391;28;20493;-68
2022/05/03 05:07:40;;;;;;;31.55;22.08;;;8.40;99.90;;;;;;5029975;28;20048;-67
2022/05/03 05:10:24;;;;;;;30.33;22.20;;;8.40;99.90;;;;;;5034063;28;20044;-68
2022/05/03 05:12:51;;;;;;;29.88;22.35;;;8.50;99.90;;;;;;5035208;28;20076;-67
2022/05/03 05:15:16;;;;;;;35.10;22.98;;;8.50;99.90;;;;;;5035074;28;20038;-68
2022/05/03 05:17:42;;;;;;;31.50;21.60;;;8.50;99.90;;;;;;5034892;28;20044;-68
2022/05/03 05:20:08;;;;;;;36.00;23.30;;;8.60;99.90;;;;;;5034573;28;20511;-68
2022/05/03 05:22:33;;;;;;;35.60;23.55;;;8.70;99.90;;;;;;5034745;28;20128;-67
2022/05/03 05:24:59;;;;;;;35.90;25.88;;;8.70;99.90;;;;;;5034975;28;20043;-67
2022/05/03 05:27:24;;;;;;;36.25;25.90;;;8.70;99.90;;;;;;5034771;28;20091;-68
2022/05/03 05:29:50;;;;;;;34.00;25.00;;;8.70;99.90;;;;;;5034795;28;20030;-67
2022/05/03 05:32:15;;;;;;;38.92;26.55;;;8.70;99.90;;;;;;5034299;28;20559;-68
2022/05/03 05:34:41;;;;;;;35.00;25.42;;;8.80;99.90;;;;;;5034467;28;20133;-68
2022/05/03 05:37:07;;;;;;;34.15;24.42;;;8.80;99.90;;;;;;5034408;28;20047;-68
2022/05/03 05:39:32;;;;;;;35.95;24.50;;;8.80;99.90;;;;;;5034706;28;20041;-68
2022/05/03 05:42:01;;;;;;;35.15;24.15;;;8.80;99.90;;;;;;5034091;28;20091;-68
2022/05/03 05:44:27;;;;;;;39.63;25.75;;;8.90;99.90;;;;;;5034438;28;20041;-65
2022/05/03 05:46:52;;;;;;;43.47;26.50;;;8.90;99.90;;;;;;5034152;28;20079;-66
2022/05/03 05:49:18;;;;;;;35.67;25.52;;;8.90;99.90;;;;;;5034518;28;20034;-68
2022/05/03 05:51:45;;;;;;;34.80;26.08;;;8.90;99.90;;;;;;5033938;28;20117;-67
2022/05/03 05:54:11;;;;;;;35.30;24.90;;;8.90;99.90;;;;;;5034450;28;20042;-68
2022/05/03 05:56:37;;;;;;;37.35;24.70;;;8.90;99.90;;;;;;5034370;28;20038;-67
2022/05/03 05:59:02;;;;;;;33.00;24.42;;;9.00;99.90;;;;;;5034224;28;20041;-66
2022/05/03 06:01:41;;;;;;;39.88;23.52;;;9.00;99.90;;;;;;5033732;28;20194;-66
2022/05/03 06:04:07;;;;;;;35.13;23.88;;;9.00;99.90;;;;;;5033888;28;20045;-66
2022/05/03 06:06:35;;;;;;;37.25;24.98;;;9.00;99.90;;;;;;5033993;28;20037;-65
2022/05/03 06:09:01;;;;;;;34.97;25.58;;;9.00;99.90;;;;;;5034050;28;20029;-65
2022/05/03 06:11:29;;;;;;;37.83;25.38;;;9.00;99.90;;;;;;5033756;28;20047;-66
2022/05/03 06:13:54;;;;;;;36.95;24.83;;;9.00;99.90;;;;;;5033884;28;20045;-66
2022/05/03 06:16:20;;;;;;;39.78;27.40;;;9.00;99.90;;;;;;5033776;28;20034;-66
2022/05/03 06:18:46;;;;;;;41.60;28.08;;;9.00;99.90;;;;;;5032296;28;20056;-66
2022/05/03 06:21:12;;;;;;;41.03;27.40;;;9.00;99.90;;;;;;5033121;28;20037;-66
2022/05/03 06:23:38;;;;;;;38.22;26.17;;;9.00;99.90;;;;;;5033941;28;20041;-66
2022/05/03 06:26:07;;;;;;;38.92;27.67;;;9.00;99.90;;;;;;5033552;28;20092;-66
2022/05/03 06:28:33;;;;;;;43.60;27.98;;;9.10;99.90;;;;;;5032343;28;20057;-66
2022/05/03 06:30:58;;;;;;;38.80;26.10;;;9.10;99.90;;;;;;5033248;28;20078;-66
2022/05/03 06:33:24;;;;;;;42.22;27.10;;;9.10;99.90;;;;;;5032174;28;20037;-66
2022/05/03 06:35:50;;;;;;;51.83;31.75;;;9.10;99.90;;;;;;5033716;28;20034;-66
2022/05/03 06:38:15;;;;;;;47.13;30.90;;;9.10;99.90;;;;;;5033515;28;20398;-66
2022/05/03 06:40:41;;;;;;;47.65;31.60;;;9.10;99.90;;;;;;5033142;28;20084;-66
2022/05/03 06:43:07;;;;;;;49.60;31.42;;;9.10;99.90;;;;;;5033375;28;20116;-68
2022/05/03 06:45:33;;;;;;;51.63;27.38;;;9.20;99.90;;;;;;5033148;28;20123;-67
2022/05/03 06:48:00;;;;;;;48.72;24.80;;;9.20;99.90;;;;;;5032873;28;20499;-66
2022/05/03 06:50:26;;;;;;;41.35;21.65;;;9.20;99.90;;;;;;5032956;28;20052;-66
2022/05/03 06:52:52;;;;;;;41.83;17.95;;;9.20;99.90;;;;;;5033112;28;20037;-66
2022/05/03 06:55:17;;;;;;;43.58;18.20;;;9.30;99.90;;;;;;5033147;28;20030;-66
2022/05/03 06:57:43;;;;;;;37.75;15.50;;;9.30;99.90;;;;;;5032971;28;20037;-66
2022/05/03 07:00:09;;;;;;;24.58;9.90;;;9.30;99.90;;;;;;5032474;28;20450;-66
2022/05/03 07:02:36;;;;;;;19.63;10.02;;;9.30;99.90;;;;;;5032745;28;20041;-66
2022/05/03 07:05:03;;;;;;;19.65;9.88;;;9.30;99.90;;;;;;5032989;28;20037;-66
2022/05/03 07:07:29;;;;;;;19.88;8.77;;;9.20;99.90;;;;;;5032618;28;20084;-66
2022/05/03 07:09:56;;;;;;;20.17;8.60;;;9.20;99.90;;;;;;5032482;28;20084;-67
2022/05/03 07:12:21;;;;;;;24.73;8.25;;;9.30;99.90;;;;;;5032562;28;20040;-67
2022/05/03 07:14:47;;;;;;;18.42;8.38;;;9.30;99.90;;;;;;5032571;28;20041;-68
2022/05/03 07:22:47;;;;;;;17.70;8.23;;;9.20;99.90;;;;;;5032650;28;20121;-68
2022/05/03 07:25:16;;;;;;;15.43;7.57;;;9.30;99.90;;;;;;5032496;28;20045;-68
2022/05/03 07:27:45;;;;;;;17.42;7.63;;;9.30;99.90;;;;;;5032179;28;20515;-68
2022/05/03 07:30:14;;;;;;;17.73;7.32;;;9.30;99.90;;;;;;5032202;28;20380;-66
2022/05/03 07:32:41;;;;;;;10.60;6.43;;;9.30;99.90;;;;;;5031408;28;20040;-66
2022/05/03 07:35:07;;;;;;;14.55;7.13;;;9.40;99.90;;;;;;5032174;28;20077;-65
2022/05/03 07:37:33;;;;;;;17.83;8.43;;;9.40;99.90;;;;;;5032298;28;20037;-65
2022/05/03 07:39:58;;;;;;;18.92;7.45;;;9.40;99.90;;;;;;5031854;28;20043;-66
2022/05/03 07:42:24;;;;;;;14.85;6.90;;;9.40;99.90;;;;;;5032397;28;20359;-66
2022/05/03 07:44:49;;;;;;;15.93;7.63;;;9.40;99.90;;;;;;5032267;28;20042;-66
2022/05/03 07:47:15;;;;;;;20.00;8.75;;;9.40;99.90;;;;;;5031785;28;20503;-66
2022/05/03 07:49:40;;;;;;;22.42;7.82;;;9.40;99.90;;;;;;5032087;28;20030;-65
2022/05/03 07:52:07;;;;;;;21.73;8.93;;;9.40;99.90;;;;;;5031697;28;20176;-67
2022/05/03 07:54:33;;;;;;;23.58;8.90;;;9.40;99.90;;;;;;5031842;28;20044;-67
2022/05/03 07:56:59;;;;;;;23.35;9.25;;;9.40;99.90;;;;;;5032017;28;20037;-67
2022/05/03 07:59:25;;;;;;;22.38;7.60;;;9.40;99.90;;;;;;5031780;28;20445;-67
2022/05/03 08:01:53;;;;;;;24.42;9.32;;;9.40;99.90;;;;;;5030022;28;20041;-67
2022/05/03 08:04:19;;;;;;;19.08;7.45;;;9.50;99.90;;;;;;5026423;28;20521;-67
2022/05/03 08:06:44;;;;;;;21.15;7.82;;;9.50;99.90;;;;;;5030547;28;20041;-67
2022/05/03 08:09:10;;;;;;;21.10;6.35;;;9.50;99.90;;;;;;5031732;28;20029;-67
2022/05/03 08:11:36;;;;;;;23.40;6.88;;;9.60;99.90;;;;;;5031496;28;20441;-67
2022/05/03 08:14:01;;;;;;;21.10;6.80;;;9.60;99.90;;;;;;5031700;28;20041;-67
2022/05/03 08:16:30;;;;;;;23.42;6.18;;;9.70;99.90;;;;;;5024584;28;20578;-68
2022/05/03 08:18:56;;;;;;;20.63;6.60;;;9.80;99.90;;;;;;5014115;28;20029;-67
2022/05/03 08:21:22;;;;;;;18.35;6.15;;;9.80;99.90;;;;;;5011514;28;20048;-67
2022/05/03 08:23:47;;;;;;;20.65;6.10;;;9.80;99.90;;;;;;5017033;28;20041;-67
2022/05/03 08:26:13;;;;;;;20.45;6.05;;;9.80;99.90;;;;;;5027156;28;20049;-67
2022/05/03 08:28:42;;;;;;;25.90;6.38;;;9.80;99.90;;;;;;5030418;28;20045;-68
2022/05/03 08:31:09;;;;;;;18.25;4.78;;;9.90;99.90;;;;;;5031364;28;20037;-67
2022/05/03 08:33:35;;;;;;;18.13;5.07;;;9.90;99.90;;;;;;5031670;28;20045;-67
2022/05/03 08:36:01;;;;;;;17.02;5.40;;;10.00;99.90;;;;;;5031633;28;20159;-67
2022/05/03 08:43:58;;;;;;;20.98;6.45;;;10.00;99.90;;;;;;5023194;28;20495;-67
2022/05/03 08:46:24;;;;;;;17.23;6.10;;;10.10;99.90;;;;;;5024126;28;20427;-67
2022/05/03 08:48:55;;;;;;;15.35;5.15;;;10.00;99.90;;;;;;5026457;28;20039;-67
2022/05/03 08:51:23;;;;;;;24.25;6.03;;;9.90;99.90;;;;;;5035260;28;20034;-67
2022/05/03 08:53:50;;;;;;;26.67;5.20;;;10.00;99.90;;;;;;5035429;28;20045;-68
2022/05/03 08:56:19;;;;;;;16.40;5.40;;;10.00;99.90;;;;;;5035319;28;20071;-67
2022/05/03 08:58:45;;;;;;;13.15;5.20;;;10.00;99.90;;;;;;5029058;28;20052;-68
2022/05/03 09:01:11;;;;;;;13.68;4.22;;;10.00;99.90;;;;;;5034719;28;20399;-67
2022/05/03 09:03:37;;;;;;;16.60;4.70;;;10.00;99.90;;;;;;5035153;28;20117;-67
2022/05/03 09:06:04;;;;;;;15.15;4.47;;;10.10;99.90;;;;;;5025385;28;20125;-67
2022/05/03 09:08:31;;;;;;;14.52;3.72;;;10.10;99.90;;;;;;5018479;28;20088;-68
2022/05/03 09:10:57;;;;;;;18.08;4.47;;;10.00;99.90;;;;;;5019010;28;20041;-66
2022/05/03 09:13:24;;;;;;;16.13;3.72;;;10.00;99.90;;;;;;5015204;28;20404;-67
2022/05/03 09:15:55;;;;;;;12.82;4.47;;;10.20;99.90;;;;;;5015114;28;20041;-67
2022/05/03 09:18:26;;;;;;;11.30;3.85;;;10.20;99.90;;;;;;5015255;28;20041;-67
2022/05/03 09:23:47;;;;;;;13.82;3.65;;;10.20;99.90;;;;;;5015066;28;20124;-67
2022/05/03 09:26:20;;;;;;;12.07;3.97;;;10.20;99.90;;;;;;5013628;28;20045;-67
2022/05/03 09:28:55;;;;;;;12.77;4.38;;;10.40;99.90;;;;;;5015100;28;20068;-67
2022/05/03 09:31:27;;;;;;;15.73;4.68;;;10.50;99.90;;;;;;5015034;28;20037;-67
2022/05/03 09:33:53;;;;;;;17.02;3.90;;;10.50;99.90;;;;;;5022797;28;20108;-67
2022/05/03 09:36:19;;;;;;;11.32;3.38;;;10.60;99.90;;;;;;5025186;28;20590;-68
2022/05/03 09:38:48;;;;;;;11.82;3.22;;;10.60;99.90;;;;;;5027773;28;20124;-67
2022/05/03 09:41:15;;;;;;;12.90;3.53;;;10.50;99.90;;;;;;5034107;28;20577;-67
2022/05/03 09:44:19;;;;;;;14.57;4.07;;;10.60;99.90;;;;;;5034397;28;20042;-67
2022/05/03 09:46:52;;;;;;;;;;;10.50;99.90;;;;;;5012351;28;20041;-67
2022/05/03 09:49:19;;;;;;;11.43;3.67;;;10.60;99.90;;;;;;5012084;28;19971;-65
2022/05/03 09:51:45;;;;;;;16.77;4.50;;;10.70;99.90;;;;;;5023316;28;20054;-65
2022/05/03 09:54:10;;;;;;;14.88;3.10;;;10.70;99.90;;;;;;5034369;28;20030;-67
2022/05/03 09:56:39;;;;;;;14.32;4.03;;;10.80;99.90;;;;;;5033153;28;20043;-68
2022/05/03 09:59:08;;;;;;;14.95;4.13;;;10.90;99.90;;;;;;5034218;28;20418;-67
2022/05/03 10:01:36;;;;;;;10.20;3.22;;;11.10;99.90;;;;;;5033709;28;20502;-65
2022/05/03 10:04:06;;;;;;;10.93;4.15;;;11.20;99.90;;;;;;5034165;28;20459;-66
2022/05/03 10:06:32;;;;;;;11.55;3.55;;;11.20;99.90;;;;;;5033919;28;20065;-65
2022/05/03 10:08:58;;;;;;;14.63;3.58;;;11.40;99.90;;;;;;5034116;28;20112;-67
2022/05/03 10:11:26;;;;;;;8.18;3.83;;;11.30;99.90;;;;;;5034067;28;20041;-67
2022/05/03 10:13:55;;;;;;;13.90;3.03;;;11.30;99.90;;;;;;5033908;28;20087;-67
2022/05/03 10:22:01;;;;;;;5.45;2.88;;;11.30;99.90;;;;;;5033526;28;20050;-67
2022/05/03 10:24:28;;;;;;;11.57;3.80;;;11.30;99.90;;;;;;5033583;28;20478;-65
2022/05/03 10:26:58;;;;;;;7.10;2.92;;;11.40;99.90;;;;;;5033364;28;20056;-65
2022/05/03 10:29:25;;;;;;;11.63;3.58;;;11.60;99.90;;;;;;5033651;28;20050;-65
2022/05/03 10:32:02;;;;;;;11.35;3.55;;;11.70;99.90;;;;;;5033326;28;20052;-65
2022/05/03 10:34:40;;;;;;;11.82;3.35;;;11.80;98.00;;;;;;5032807;28;20120;-65
2022/05/03 10:37:17;;;;;;;7.13;2.70;;;11.80;96.20;;;;;;5033311;28;20044;-65
2022/05/03 10:39:55;;;;;;;10.15;3.50;;;11.70;95.70;;;;;;5033453;28;20056;-65
2022/05/03 10:42:29;;;;;;;8.10;3.40;;;11.90;93.40;;;;;;5032251;28;20053;-64
2022/05/03 10:45:14;;;;;;;8.13;2.97;;;12.00;93.90;;;;;;5033268;28;20042;-65
2022/05/03 10:47:51;;;;;;;15.07;3.10;;;12.30;93.30;;;;;;5032917;28;20037;-65
2022/05/03 10:50:16;;;;;;;11.15;3.22;;;12.40;91.50;;;;;;5024125;28;20044;-65
2022/05/03 10:52:55;;;;;;;7.75;2.85;;;12.20;91.60;;;;;;5023380;28;20408;-65
2022/05/03 10:55:22;;;;;;;8.13;2.78;;;12.20;89.30;;;;;;5023097;28;20105;-64
2022/05/03 10:58:15;;;;;;;9.55;3.20;;;12.50;91.20;;;;;;5030022;28;20060;-65
2022/05/03 11:00:59;;;;;;;9.20;1.98;;;12.80;87.40;;;;;;5031575;28;20495;-65
2022/05/03 11:03:25;;;;;;;10.10;2.97;;;12.70;82.80;;;;;;5032806;28;20049;-65
2022/05/03 11:06:16;;;;;;;11.80;2.95;;;12.50;83.70;;;;;;5033163;28;20064;-65
2022/05/03 11:11:43;;;;;;;;;;;12.90;87.80;;;;;;5033033;28;20041;-65
2022/05/03 11:14:24;;;;;;;16.15;3.88;;;12.80;83.40;;;;;;5032905;28;20284;-65
2022/05/03 11:17:01;;;;;;;7.28;2.58;;;13.10;85.20;;;;;;5032565;28;20050;-65
2022/05/03 11:19:28;;;;;;;10.40;2.40;;;12.90;81.40;;;;;;5032604;28;20495;-65
2022/05/03 11:21:55;;;;;;;8.73;2.50;;;12.80;80.30;;;;;;5031389;28;20041;-65
2022/05/03 11:24:22;;;;;;;8.27;2.47;;;12.60;79.80;;;;;;5022007;28;20129;-65
2022/05/03 11:26:53;;;;;;;9.02;2.50;;;12.50;81.50;;;;;;5023686;28;20041;-65
2022/05/03 11:29:19;;;;;;;6.97;2.17;;;12.80;85.30;;;;;;5032316;28;20042;-65
2022/05/03 11:31:52;;;;;;;8.02;2.28;;;12.80;83.90;;;;;;5032257;28;20492;-67
2022/05/03 11:34:18;;;;;;;7.38;2.20;;;12.70;80.50;;;;;;5030575;28;20041;-66
2022/05/03 11:36:50;;;;;;;8.52;2.42;;;12.80;79.90;;;;;;5023917;28;20081;-65
2022/05/03 11:39:20;;;;;;;4.25;1.98;;;13.10;80.10;;;;;;5032401;28;20038;-66
2022/05/03 11:41:47;;;;;;;8.85;2.60;;;13.00;77.00;;;;;;5031893;28;20083;-65
2022/05/03 11:44:13;;;;;;;7.85;2.28;;;12.60;75.20;;;;;;5032496;28;20045;-65
2022/05/03 11:46:41;;;;;;;6.60;2.35;;;12.70;75.50;;;;;;5022307;28;20100;-65
2022/05/03 11:49:09;;;;;;;7.13;1.75;;;13.00;78.20;;;;;;5032245;28;20041;-65
2022/05/03 11:57:19;;;;;;;6.25;1.98;;;13.30;72.40;;;;;;5021460;28;19957;-65
2022/05/03 11:59:45;;;;;;;10.63;3.13;;;13.40;72.70;;;;;;5030621;28;20088;-65
2022/05/03 12:02:23;;;;;;;9.98;2.72;;;12.80;72.30;;;;;;5031632;28;20383;-69
2022/05/03 12:05:16;;;;;;;6.20;1.83;;;12.80;73.20;;;;;;5030649;28;20099;-68
2022/05/03 12:07:50;;;;;;;7.27;2.47;;;13.00;74.60;;;;;;5031740;28;20045;-69
2022/05/03 12:10:30;;;;;;;12.60;2.08;;;13.10;74.90;;;;;;5022052;28;20033;-68
2022/05/03 12:13:14;;;;;;;11.13;2.13;;;13.30;75.90;;;;;;5031693;28;20045;-68
2022/05/03 12:15:45;;;;;;;5.78;1.98;;;13.50;75.40;;;;;;5032037;28;20044;-68
2022/05/03 12:18:18;;;;;;;7.28;2.35;;;13.20;73.40;;;;;;5031408;28;20037;-68
2022/05/03 12:20:52;;;;;;;7.53;2.40;;;12.90;71.10;;;;;;5030341;28;20045;-68
2022/05/03 12:23:22;;;;;;;;;;;12.60;72.60;;;;;;5032047;28;20033;-68
2022/05/03 12:25:50;;;;;;;7.25;1.73;;;12.70;75.60;;;;;;5031897;28;19921;-68
2022/05/03 12:28:17;;;;;;;11.13;2.10;;;12.60;75.30;;;;;;5031761;28;20447;-68
2022/05/03 12:30:43;;;;;;;11.07;2.42;;;12.40;74.00;;;;;;5031656;28;20033;-68
2022/05/03 12:33:13;;;;;;;9.32;2.15;;;12.30;73.70;;;;;;5030403;28;20037;-68
2022/05/03 12:35:43;;;;;;;8.75;2.75;;;12.40;74.10;;;;;;5031747;28;20613;-69
2022/05/03 12:38:16;;;;;;;6.00;2.55;;;12.50;74.20;;;;;;5009136;28;20045;-69
2022/05/03 12:40:51;;;;;;;5.87;2.40;;;12.60;75.20;;;;;;5020405;28;20096;-69
2022/05/03 12:43:21;;;;;;;9.00;2.10;;;12.80;75.00;;;;;;5012270;28;20280;-68
2022/05/03 12:45:57;;;;;;;10.60;2.28;;;12.70;73.60;;;;;;5011745;28;20038;-68
2022/05/03 12:48:22;;;;;;;6.65;2.10;;;13.00;72.50;;;;;;5011508;28;20092;-68
2022/05/03 12:50:49;;;;;;;8.80;2.30;;;13.30;73.80;;;;;;5011602;28;20455;-68
2022/05/03 12:53:15;;;;;;;5.93;2.17;;;13.30;71.10;;;;;;5011789;28;20038;-68
2022/05/03 12:55:41;;;;;;;7.88;2.30;;;13.50;72.30;;;;;;5011739;28;20038;-68
2022/05/03 13:00:57;;;;;;;4.68;2.17;;;13.70;71.50;;;;;;5011119;28;20045;-69
2022/05/03 13:03:23;;;;;;;9.73;2.35;;;13.40;69.50;;;;;;5010391;28;20052;-68
2022/05/03 13:05:50;;;;;;;5.70;1.80;;;13.70;71.10;;;;;;5011267;28;20065;-69
2022/05/03 13:08:16;;;;;;;11.52;2.70;;;13.50;68.50;;;;;;5011452;28;20464;-69
2022/05/03 13:10:42;;;;;;;8.35;2.25;;;13.60;69.80;;;;;;5009918;28;20415;-69
2022/05/03 13:13:08;;;;;;;9.05;2.80;;;13.60;69.10;;;;;;5011534;28;20037;-69
2022/05/03 13:15:34;;;;;;;7.05;2.35;;;13.60;69.20;;;;;;5011389;28;20084;-69
2022/05/03 13:18:00;;;;;;;8.82;2.35;;;13.50;68.20;;;;;;5019164;28;20050;-69
2022/05/03 13:20:27;;;;;;;13.18;3.40;;;13.70;69.00;;;;;;5017443;28;20049;-69
2022/05/03 13:22:54;;;;;;;7.90;2.60;;;13.30;68.90;;;;;;5010198;28;20161;-69
2022/05/03 13:25:19;;;;;;;7.70;2.10;;;13.40;69.40;;;;;;5011314;28;20068;-69
2022/05/03 13:27:45;;;;;;;11.07;2.38;;;13.40;70.20;;;;;;5011098;28;20499;-69
2022/05/03 13:30:11;;;;;;;7.75;2.42;;;13.40;69.80;;;;;;5020028;28;20021;-69
2022/05/03 13:32:37;;;;;;;12.38;2.17;;;12.90;69.70;;;;;;5022580;28;20476;-69
2022/05/03 13:35:03;;;;;;;9.85;2.67;;;12.80;70.50;;;;;;5022780;28;20092;-69
2022/05/03 13:40:31;;;;;;;10.32;2.55;;;13.60;72.00;;;;;;5020728;28;20049;-69